Time;durP1;ratioP1;P1;durP2;ratioP2;P2;SDS_P1;SDS_P2;PMS_P1;PMS_P2;Temp;Humidity;BMP_temperature;BMP_pressure;BME280_temperature;BME280_humidity;BME280_pressure;Samples;Min_cycle;Max_cycle;Signal;HPM_P1;HPM_P2
2021/12/25 00:00:11;;;;;;;8.55;1.20;;;;;;;;;;5039571;28;20053;-36
2021/12/25 00:02:39;;;;;;;3.33;1.20;;;;;;;;;;5037904;28;20038;-36
2021/12/25 00:05:06;;;;;;;3.10;1.00;;;;;;;;;;5034047;28;20515;-36
2021/12/25 00:07:32;;;;;;;4.32;1.20;;;;;;;;;;5027094;28;20113;-36
2021/12/25 00:09:59;;;;;;;4.28;1.25;;;;;;;;;;5031589;28;20382;-36
2021/12/25 00:12:25;;;;;;;4.32;0.82;;;;;;;;;;5029866;28;20476;-36
2021/12/25 00:14:51;;;;;;;4.32;1.15;;;;;;;;;;5025881;28;20034;-36
2021/12/25 00:17:17;;;;;;;2.88;0.88;;;;;;;;;;5030657;28;20037;-36
2021/12/25 00:19:44;;;;;;;5.38;1.10;;;;;;;;;;5037601;28;20373;-36
2021/12/25 00:22:10;;;;;;;2.33;0.80;;;;;;;;;;5035702;28;20034;-36
2021/12/25 00:24:42;;;;;;;2.40;0.90;;;;;;;;;;5026420;28;20026;-36
2021/12/25 00:27:32;;;;;;;4.13;1.23;;;;;;;;;;5049011;28;20491;-36
2021/12/25 00:34:46;;;;;;;2.35;1.00;;;;;;;;;;5023714;28;20076;-36
2021/12/25 00:37:12;;;;;;;5.78;1.60;;;;;;;;;;5018664;28;20061;-36
2021/12/25 00:39:38;;;;;;;4.35;1.50;;;;;;;;;;5030550;28;20052;-35
2021/12/25 00:42:05;;;;;;;4.35;1.52;;;;;;;;;;5023436;28;20030;-36
2021/12/25 00:44:32;;;;;;;3.58;1.13;;;;;;;;;;5027076;28;20515;-35
2021/12/25 00:46:58;;;;;;;2.35;1.08;;;;;;;;;;5022702;28;20029;-35
2021/12/25 00:49:24;;;;;;;8.77;1.52;;;;;;;;;;5030437;28;20054;-35
2021/12/25 00:51:50;;;;;;;3.00;1.08;;;;;;;;;;5023072;28;20021;-35
2021/12/25 00:54:16;;;;;;;6.53;1.67;;;;;;;;;;5029099;28;20456;-35
2021/12/25 00:56:43;;;;;;;3.38;1.48;;;;;;;;;;5024804;28;20021;-36
2021/12/25 00:59:09;;;;;;;3.95;1.83;;;;;;;;;;5046033;22;20501;-44
2021/12/25 01:01:35;;;;;;;3.50;1.30;;;;;;;;;;5034343;28;20029;-45
2021/12/25 01:04:01;;;;;;;3.58;1.48;;;;;;;;;;5029230;28;20036;-43
2021/12/25 01:06:27;;;;;;;2.58;1.25;;;;;;;;;;5031241;28;20109;-45
2021/12/25 01:08:53;;;;;;;2.67;1.05;;;;;;;;;;5031393;28;20033;-43
2021/12/25 01:11:20;;;;;;;3.15;1.25;;;;;;;;;;5034441;28;20614;-44
2021/12/25 01:13:53;;;;;;;2.38;1.27;;;;;;;;;;5033282;28;20205;-43
2021/12/25 01:24:27;;;;;;;5.15;2.40;;;;;;;;;;5033582;28;20030;-43
2021/12/25 01:27:30;;;;;;;6.32;2.53;;;;;;;;;;5032710;28;20595;-44
2021/12/25 01:35:22;;;;;;;5.78;3.28;;;;;;;;;;5028144;28;20073;-43
2021/12/25 01:41:14;;;;;;;4.13;2.10;;;;;;;;;;5024164;28;20395;-43
2021/12/25 01:48:55;;;;;;;15.25;3.55;;;;;;;;;;5033189;28;20308;-44
2021/12/25 01:51:21;;;;;;;6.10;2.53;;;;;;;;;;5036854;28;20021;-44
2021/12/25 01:53:47;;;;;;;5.43;2.97;;;;;;;;;;5033071;28;20040;-44
2021/12/25 01:56:13;;;;;;;4.85;2.00;;;;;;;;;;5032276;28;20056;-44
2021/12/25 01:58:39;;;;;;;8.43;2.17;;;;;;;;;;5028262;28;20106;-43
2021/12/25 02:01:06;;;;;;;6.35;2.10;;;;;;;;;;5034343;28;20411;-43
2021/12/25 02:03:34;;;;;;;9.18;1.95;;;;;;;;;;5033343;28;20100;-44
2021/12/25 02:06:01;;;;;;;4.32;1.75;;;;;;;;;;5033882;28;20495;-43
2021/12/25 02:08:27;;;;;;;5.85;2.05;;;;;;;;;;5033848;28;20029;-43
2021/12/25 02:10:53;;;;;;;3.30;1.83;;;;;;;;;;5027782;28;20061;-43
2021/12/25 02:13:20;;;;;;;2.35;1.33;;;;;;;;;;5029226;28;20044;-43
2021/12/25 02:15:49;;;;;;;3.92;1.60;;;;;;;;;;5032603;28;20029;-45
2021/12/25 02:23:34;;;;;;;9.85;3.15;;;;;;;;;;5033691;28;20025;-43
2021/12/25 02:26:00;;;;;;;10.57;3.95;;;;;;;;;;5028659;28;20070;-44
2021/12/25 02:28:27;;;;;;;8.88;3.55;;;;;;;;;;5028755;28;20025;-44
2021/12/25 02:30:55;;;;;;;12.32;4.53;;;;;;;;;;5031071;28;20045;-45
2021/12/25 02:33:21;;;;;;;11.15;3.88;;;;;;;;;;5033966;28;20116;-45
2021/12/25 02:35:47;;;;;;;10.15;3.45;;;;;;;;;;5038554;28;20571;-44
2021/12/25 02:38:14;;;;;;;10.25;3.75;;;;;;;;;;5031625;28;20118;-44
2021/12/25 02:40:40;;;;;;;11.52;3.30;;;;;;;;;;5011002;28;20030;-43
2021/12/25 02:43:07;;;;;;;6.30;3.33;;;;;;;;;;5023277;28;20454;-44
2021/12/25 02:45:33;;;;;;;12.18;3.72;;;;;;;;;;5011279;28;20113;-45
2021/12/25 02:48:07;;;;;;;7.28;2.35;;;;;;;;;;5019312;28;20444;-44
2021/12/25 02:50:33;;;;;;;9.85;2.47;;;;;;;;;;5023029;28;20380;-44
2021/12/25 02:53:00;;;;;;;12.13;2.53;;;;;;;;;;5010859;28;20058;-44
2021/12/25 02:55:27;;;;;;;4.10;2.50;;;;;;;;;;5016098;28;20053;-44
2021/12/25 02:57:53;;;;;;;5.47;1.98;;;;;;;;;;5030793;28;20130;-44
2021/12/25 03:00:24;;;;;;;5.00;1.85;;;;;;;;;;5013684;28;20442;-44
2021/12/25 03:02:50;;;;;;;7.53;1.50;;;;;;;;;;5010871;28;20469;-43
2021/12/25 03:05:16;;;;;;;4.65;1.60;;;;;;;;;;5023139;28;20057;-44
2021/12/25 03:07:43;;;;;;;8.05;2.35;;;;;;;;;;5017939;28;20033;-45
2021/12/25 03:10:10;;;;;;;4.65;2.05;;;;;;;;;;5025761;28;20036;-44
2021/12/25 03:12:47;;;;;;;2.92;1.35;;;;;;;;;;5028824;28;20079;-44
2021/12/25 03:15:17;;;;;;;4.82;1.30;;;;;;;;;;5030375;28;20476;-44
2021/12/25 03:17:44;;;;;;;10.80;2.05;;;;;;;;;;5029360;28;20376;-45
2021/12/25 03:20:11;;;;;;;3.40;1.13;;;;;;;;;;5025108;28;20032;-44
2021/12/25 03:22:38;;;;;;;2.72;1.02;;;;;;;;;;5029208;28;20044;-44
2021/12/25 03:25:08;;;;;;;2.28;0.82;;;;;;;;;;5029978;28;20033;-44
2021/12/25 03:27:39;;;;;;;5.47;1.13;;;;;;;;;;5027574;28;20021;-44
2021/12/25 03:30:06;;;;;;;6.70;1.17;;;;;;;;;;5023947;28;20057;-44
2021/12/25 03:32:32;;;;;;;3.10;1.25;;;;;;;;;;5018145;28;20040;-44
2021/12/25 03:34:58;;;;;;;3.88;1.70;;;;;;;;;;5010585;28;20489;-44
2021/12/25 03:37:24;;;;;;;7.95;1.98;;;;;;;;;;5020682;28;20025;-44
2021/12/25 03:39:50;;;;;;;2.95;1.10;;;;;;;;;;5025901;28;20104;-44
2021/12/25 03:42:16;;;;;;;7.72;1.30;;;;;;;;;;5029694;28;20483;-44
2021/12/25 03:44:42;;;;;;;3.65;1.10;;;;;;;;;;5019697;28;20117;-45
2021/12/25 03:47:23;;;;;;;4.28;1.33;;;;;;;;;;5030807;28;20057;-45
2021/12/25 03:58:07;;;;;;;3.10;1.17;;;;;;;;;;5030320;28;20036;-43
2021/12/25 04:00:35;;;;;;;3.05;0.93;;;;;;;;;;5029621;28;20037;-43
2021/12/25 04:03:05;;;;;;;2.47;1.00;;;;;;;;;;5026339;28;20044;-44
2021/12/25 04:05:34;;;;;;;2.13;1.10;;;;;;;;;;5032989;28;20030;-43
2021/12/25 04:08:06;;;;;;;3.38;0.90;;;;;;;;;;5033897;28;20053;-46
2021/12/25 04:10:35;;;;;;;3.13;1.20;;;;;;;;;;5032878;28;20464;-45
2021/12/25 04:13:02;;;;;;;3.83;1.10;;;;;;;;;;5031438;28;20075;-45
2021/12/25 04:15:28;;;;;;;5.50;1.20;;;;;;;;;;5022172;28;20025;-45
2021/12/25 04:17:55;;;;;;;6.25;1.17;;;;;;;;;;5026344;28;20025;-46
2021/12/25 04:20:21;;;;;;;2.00;0.75;;;;;;;;;;5033144;28;20033;-46
2021/12/25 04:23:01;;;;;;;2.50;0.93;;;;;;;;;;5033158;28;20503;-45
2021/12/25 04:25:31;;;;;;;2.85;1.30;;;;;;;;;;5032387;28;20694;-46
2021/12/25 04:28:03;;;;;;;2.22;0.90;;;;;;;;;;5030508;28;20061;-45
2021/12/25 04:30:36;;;;;;;3.03;1.10;;;;;;;;;;5030722;28;20554;-44
2021/12/25 04:50:05;;;;;;;3.22;1.52;;;;;;;;;;5031326;28;20047;-46
2021/12/25 05:06:02;;;;;;;4.18;1.92;;;;;;;;;;5032652;28;20053;-46
2021/12/25 05:08:28;;;;;;;3.03;1.52;;;;;;;;;;5028883;28;20593;-46
2021/12/25 05:10:54;;;;;;;8.50;1.80;;;;;;;;;;5030157;28;20617;-46
2021/12/25 05:13:20;;;;;;;6.82;1.77;;;;;;;;;;5030828;28;20407;-46
2021/12/25 05:15:47;;;;;;;2.97;1.20;;;;;;;;;;5030153;28;20365;-45
2021/12/25 05:18:13;;;;;;;9.13;1.48;;;;;;;;;;5030139;28;20018;-45
2021/12/25 05:20:40;;;;;;;5.88;1.23;;;;;;;;;;5031141;28;20033;-45
2021/12/25 05:23:06;;;;;;;4.18;1.60;;;;;;;;;;5031735;28;20040;-46
2021/12/25 05:25:33;;;;;;;2.30;1.13;;;;;;;;;;5032080;28;20040;-46
2021/12/25 05:28:01;;;;;;;2.38;1.45;;;;;;;;;;5031713;28;20025;-45
2021/12/25 05:30:27;;;;;;;6.22;1.10;;;;;;;;;;5028409;28;20113;-45
2021/12/25 05:32:53;;;;;;;4.85;1.55;;;;;;;;;;5030898;28;20030;-46
2021/12/25 05:35:19;;;;;;;3.30;0.90;;;;;;;;;;5031810;28;20033;-44
2021/12/25 05:37:46;;;;;;;3.38;1.50;;;;;;;;;;5030645;28;20049;-45
2021/12/25 05:40:13;;;;;;;3.22;1.20;;;;;;;;;;5029116;28;21426;-45
2021/12/25 05:42:39;;;;;;;2.42;0.90;;;;;;;;;;5026348;28;20025;-46
2021/12/25 05:45:05;;;;;;;4.70;1.23;;;;;;;;;;5029645;28;20496;-45
2021/12/25 05:47:32;;;;;;;4.30;1.45;;;;;;;;;;5029663;28;20031;-43
2021/12/25 05:49:58;;;;;;;3.40;1.05;;;;;;;;;;5029966;28;20415;-46
2021/12/25 05:52:24;;;;;;;1.98;1.10;;;;;;;;;;5031239;28;20532;-45
2021/12/25 05:54:50;;;;;;;4.22;1.00;;;;;;;;;;5031569;28;20019;-45
2021/12/25 05:57:16;;;;;;;2.15;0.80;;;;;;;;;;5030855;28;20032;-44
2021/12/25 05:59:42;;;;;;;1.90;1.10;;;;;;;;;;5027319;28;20161;-45
2021/12/25 06:02:08;;;;;;;1.50;0.60;;;;;;;;;;5030283;28;20389;-45
2021/12/25 06:04:38;;;;;;;5.18;1.20;;;;;;;;;;5031338;28;20025;-43
2021/12/25 06:07:04;;;;;;;1.92;1.02;;;;;;;;;;5030580;28;20014;-46
2021/12/25 06:09:30;;;;;;;3.47;0.85;;;;;;;;;;5031051;28;20529;-45
2021/12/25 06:11:56;;;;;;;2.97;1.15;;;;;;;;;;5030003;28;20092;-45
2021/12/25 06:14:22;;;;;;;2.70;1.33;;;;;;;;;;5028537;28;20045;-46
2021/12/25 06:16:50;;;;;;;3.13;1.23;;;;;;;;;;5030580;28;20064;-45
2021/12/25 06:19:17;;;;;;;3.53;1.25;;;;;;;;;;5026509;28;20591;-45
2021/12/25 06:21:43;;;;;;;3.97;1.20;;;;;;;;;;5030524;28;20400;-45
2021/12/25 06:24:09;;;;;;;1.88;1.10;;;;;;;;;;5036275;28;20087;-45
2021/12/25 06:26:38;;;;;;;1.30;0.90;;;;;;;;;;5017970;28;20028;-45
2021/12/25 06:29:04;;;;;;;2.63;1.23;;;;;;;;;;5016626;28;20092;-45
2021/12/25 06:31:30;;;;;;;2.97;1.65;;;;;;;;;;5038604;28;20334;-45
2021/12/25 06:33:58;;;;;;;6.88;1.15;;;;;;;;;;5029467;28;20033;-45
2021/12/25 06:36:24;;;;;;;2.95;1.27;;;;;;;;;;5029467;28;20112;-46
2021/12/25 06:38:50;;;;;;;4.00;1.10;;;;;;;;;;5030638;28;20108;-47
2021/12/25 06:41:16;;;;;;;8.15;1.10;;;;;;;;;;5012208;28;20464;-45
2021/12/25 06:43:42;;;;;;;3.40;1.15;;;;;;;;;;5025856;28;20040;-45
2021/12/25 06:46:08;;;;;;;5.68;1.52;;;;;;;;;;5034165;28;20064;-45
2021/12/25 06:48:34;;;;;;;4.72;1.30;;;;;;;;;;5030352;28;20033;-46
2021/12/25 06:51:00;;;;;;;5.63;1.55;;;;;;;;;;5014244;28;20404;-46
2021/12/25 06:53:26;;;;;;;2.83;1.35;;;;;;;;;;5019620;28;20025;-45
2021/12/25 06:55:52;;;;;;;5.43;1.33;;;;;;;;;;5018635;28;20080;-45
2021/12/25 06:58:18;;;;;;;6.07;1.98;;;;;;;;;;5018264;28;20029;-45
2021/12/25 07:00:44;;;;;;;5.85;1.23;;;;;;;;;;5062271;23;20125;-38
2021/12/25 07:03:10;;;;;;;5.97;1.30;;;;;;;;;;5049633;28;20116;-39
2021/12/25 07:05:36;;;;;;;2.10;0.93;;;;;;;;;;5051295;28;20067;-38
2021/12/25 07:08:03;;;;;;;5.72;1.38;;;;;;;;;;5047140;28;20065;-40
2021/12/25 07:10:29;;;;;;;4.03;1.55;;;;;;;;;;5032471;28;20476;-39
2021/12/25 07:12:55;;;;;;;6.63;1.90;;;;;;;;;;5029866;28;20101;-40
2021/12/25 07:15:21;;;;;;;8.27;1.67;;;;;;;;;;5029288;28;20041;-38
2021/12/25 07:17:47;;;;;;;1.95;1.10;;;;;;;;;;5033884;28;20083;-40
2021/12/25 07:20:13;;;;;;;4.13;1.33;;;;;;;;;;5030022;28;20033;-39
2021/12/25 07:22:39;;;;;;;7.55;1.75;;;;;;;;;;5035064;28;20029;-39
2021/12/25 07:25:06;;;;;;;5.13;1.67;;;;;;;;;;5030710;28;20101;-39
2021/12/25 07:27:32;;;;;;;5.72;1.75;;;;;;;;;;5030805;28;20037;-39
2021/12/25 07:29:58;;;;;;;4.63;1.50;;;;;;;;;;5033566;28;20033;-38
2021/12/25 07:32:24;;;;;;;8.68;2.08;;;;;;;;;;5040674;28;20026;-38
2021/12/25 07:34:51;;;;;;;8.43;2.15;;;;;;;;;;5025924;28;20168;-37
2021/12/25 07:37:17;;;;;;;7.40;1.98;;;;;;;;;;5033295;28;20017;-38
2021/12/25 07:39:44;;;;;;;4.47;1.60;;;;;;;;;;5033234;28;20030;-38
2021/12/25 07:42:10;;;;;;;7.22;2.10;;;;;;;;;;5033057;28;20033;-38
2021/12/25 07:44:37;;;;;;;9.90;1.80;;;;;;;;;;5036949;28;20021;-38
2021/12/25 07:47:08;;;;;;;3.15;1.55;;;;;;;;;;5035660;28;20021;-38
2021/12/25 07:49:34;;;;;;;3.20;1.58;;;;;;;;;;5027444;28;20116;-38
2021/12/25 07:52:00;;;;;;;3.75;2.17;;;;;;;;;;5044076;28;20036;-38
2021/12/25 07:54:26;;;;;;;7.70;2.05;;;;;;;;;;5034391;28;21921;-38
2021/12/25 07:56:52;;;;;;;8.40;2.10;;;;;;;;;;5032691;28;20100;-37
2021/12/25 07:59:20;;;;;;;12.88;2.78;;;;;;;;;;5029781;28;20029;-37
2021/12/25 08:01:46;;;;;;;7.90;2.03;;;;;;;;;;5033549;28;20030;-37
2021/12/25 08:04:12;;;;;;;5.82;2.03;;;;;;;;;;5029736;28;20032;-37
2021/12/25 08:06:39;;;;;;;6.97;3.10;;;;;;;;;;5032310;28;20468;-38
2021/12/25 08:09:05;;;;;;;5.97;2.88;;;;;;;;;;5031228;28;20033;-38
2021/12/25 08:11:31;;;;;;;11.50;4.70;;;;;;;;;;5033433;28;20025;-37
2021/12/25 08:13:58;;;;;;;8.95;3.40;;;;;;;;;;5031459;28;20029;-37
2021/12/25 08:16:24;;;;;;;6.43;2.60;;;;;;;;;;5034067;28;20111;-37
2021/12/25 08:18:50;;;;;;;12.63;4.07;;;;;;;;;;5034907;28;21532;-37
2021/12/25 08:21:16;;;;;;;5.68;3.28;;;;;;;;;;5030695;28;20068;-37
2021/12/25 08:23:42;;;;;;;11.02;3.63;;;;;;;;;;5032540;28;20565;-37
2021/12/25 08:26:08;;;;;;;7.70;3.17;;;;;;;;;;5031889;28;20036;-37
2021/12/25 08:28:35;;;;;;;10.70;4.13;;;;;;;;;;5039209;28;20024;-38
2021/12/25 08:31:01;;;;;;;7.95;3.30;;;;;;;;;;5037169;28;20056;-36
2021/12/25 08:33:27;;;;;;;10.25;3.72;;;;;;;;;;5030719;28;20045;-37
2021/12/25 08:35:53;;;;;;;9.23;3.38;;;;;;;;;;5032192;28;20037;-37
2021/12/25 08:38:19;;;;;;;8.10;3.60;;;;;;;;;;5033197;28;20582;-37
2021/12/25 08:40:46;;;;;;;10.20;4.80;;;;;;;;;;5037655;28;20029;-37
2021/12/25 08:43:14;;;;;;;13.07;4.25;;;;;;;;;;5033477;28;20059;-37
2021/12/25 08:48:14;;;;;;;7.55;3.33;;;;;;;;;;5032060;28;20116;-39
2021/12/25 08:50:41;;;;;;;6.82;3.53;;;;;;;;;;5032715;28;20469;-37
2021/12/25 08:53:07;;;;;;;8.65;4.13;;;;;;;;;;5034525;28;20025;-37
2021/12/25 08:55:34;;;;;;;10.18;4.47;;;;;;;;;;5034145;28;20056;-36
2021/12/25 08:57:59;;;;;;;32.50;12.63;;;;;;;;;;5032578;28;20029;-37
2021/12/25 09:00:26;;;;;;;34.65;15.65;;;;;;;;;;5036344;28;20394;-37
2021/12/25 09:02:52;;;;;;;24.25;10.18;;;;;;;;;;5031703;28;20117;-37
2021/12/25 09:05:18;;;;;;;29.95;12.15;;;;;;;;;;5032152;28;20598;-38
2021/12/25 09:07:44;;;;;;;39.92;15.80;;;;;;;;;;5033685;28;20488;-36
2021/12/25 09:10:10;;;;;;;33.75;12.52;;;;;;;;;;5032691;28;20094;-37
2021/12/25 09:12:40;;;;;;;27.08;10.20;;;;;;;;;;5032537;28;20028;-37
2021/12/25 09:15:06;;;;;;;19.15;9.73;;;;;;;;;;5035364;28;20032;-37
2021/12/25 09:17:32;;;;;;;19.10;7.50;;;;;;;;;;5032959;28;20067;-37
2021/12/25 09:19:59;;;;;;;21.10;8.48;;;;;;;;;;5033758;28;20067;-37
2021/12/25 09:22:24;;;;;;;19.50;8.57;;;;;;;;;;5033230;28;20025;-37
2021/12/25 09:24:50;;;;;;;19.35;7.90;;;;;;;;;;5038947;28;20071;-37
2021/12/25 09:27:16;;;;;;;15.10;6.65;;;;;;;;;;5035375;28;20033;-37
2021/12/25 09:29:43;;;;;;;10.95;5.32;;;;;;;;;;5031715;28;20507;-37
2021/12/25 09:32:09;;;;;;;9.15;4.07;;;;;;;;;;5031519;28;20022;-37
2021/12/25 09:34:35;;;;;;;9.10;4.65;;;;;;;;;;5032190;28;20559;-38
2021/12/25 09:37:01;;;;;;;9.75;3.90;;;;;;;;;;5030618;28;20106;-37
2021/12/25 09:39:27;;;;;;;10.07;4.60;;;;;;;;;;5033279;28;20057;-38
2021/12/25 09:41:53;;;;;;;9.82;4.07;;;;;;;;;;5032417;28;20025;-37
2021/12/25 09:44:19;;;;;;;8.50;4.07;;;;;;;;;;5030800;28;20366;-37
2021/12/25 09:46:45;;;;;;;13.30;4.28;;;;;;;;;;5037421;28;20404;-37
2021/12/25 09:49:11;;;;;;;9.90;3.45;;;;;;;;;;5032253;28;20102;-37
2021/12/25 09:51:38;;;;;;;8.75;3.72;;;;;;;;;;5033426;28;20028;-38
2021/12/25 09:54:06;;;;;;;5.70;3.50;;;;;;;;;;5028978;28;20029;-38
2021/12/25 09:56:33;;;;;;;8.88;4.05;;;;;;;;;;5029129;28;20088;-37
2021/12/25 09:58:59;;;;;;;13.35;5.25;;;;;;;;;;5032844;28;20025;-38
2021/12/25 10:01:53;;;;;;;12.55;5.53;;;;;;;;;;5033836;28;20031;-38
2021/12/25 10:04:34;;;;;;;8.85;4.97;;;;;;;;;;5032821;28;20049;-44
2021/12/25 10:07:15;;;;;;;10.65;3.70;;;;;;;;;;5030952;28;20037;-40
2021/12/25 10:09:41;;;;;;;9.10;4.10;;;;;;;;;;5030429;28;20072;-41
2021/12/25 10:12:10;;;;;;;11.13;3.67;;;;;;;;;;5029349;28;20028;-42
2021/12/25 10:14:41;;;;;;;10.68;4.35;;;;;;;;;;5029731;28;20028;-41
2021/12/25 10:17:13;;;;;;;13.20;5.05;;;;;;;;;;5029971;28;20057;-42
2021/12/25 10:19:39;;;;;;;7.72;4.00;;;;;;;;;;5029651;28;20026;-42
2021/12/25 10:22:09;;;;;;;14.52;4.10;;;;;;;;;;5034296;28;20084;-42
2021/12/25 10:24:47;;;;;;;10.82;4.80;;;;;;;;;;5032526;28;20118;-39
2021/12/25 10:27:20;;;;;;;12.48;5.78;;;;;;;;;;5031092;28;20504;-40
2021/12/25 10:29:47;;;;;;;10.23;4.22;;;;;;;;;;5030642;28;20100;-38
2021/12/25 10:32:14;;;;;;;10.32;4.53;;;;;;;;;;5031337;28;20059;-38
2021/12/25 10:34:40;;;;;;;9.60;3.85;;;;;;;;;;5030283;28;20085;-39
2021/12/25 10:37:07;;;;;;;7.80;3.53;;;;;;;;;;5029583;28;20076;-39
2021/12/25 10:39:33;;;;;;;8.38;3.33;;;;;;;;;;5030885;28;20022;-41
2021/12/25 10:42:10;;;;;;;15.20;3.60;;;;;;;;;;5033596;28;20104;-41
2021/12/25 10:44:37;;;;;;;6.82;3.40;;;;;;;;;;5030675;28;20658;-40
2021/12/25 10:47:03;;;;;;;4.90;2.15;;;;;;;;;;5032101;28;20026;-40
2021/12/25 10:49:30;;;;;;;6.55;3.13;;;;;;;;;;5032559;28;20021;-36
2021/12/25 10:52:09;;;;;;;9.30;3.40;;;;;;;;;;5028636;28;20029;-37
2021/12/25 10:54:39;;;;;;;9.98;3.03;;;;;;;;;;5029723;28;20437;-39
2021/12/25 10:57:06;;;;;;;8.27;2.72;;;;;;;;;;5030184;28;20036;-40
2021/12/25 10:59:42;;;;;;;5.43;2.53;;;;;;;;;;5032888;28;20032;-41
2021/12/25 11:02:08;;;;;;;8.55;4.18;;;;;;;;;;5031811;28;20120;-42
2021/12/25 11:04:36;;;;;;;9.57;2.80;;;;;;;;;;5032637;28;20056;-41
2021/12/25 11:07:16;;;;;;;6.07;2.28;;;;;;;;;;5034327;28;20104;-39
2021/12/25 11:10:01;;;;;;;5.07;2.20;;;;;;;;;;5030287;28;20611;-43
2021/12/25 11:12:29;;;;;;;;;;;;;;;;;;5029117;28;20083;-41
2021/12/25 11:15:08;;;;;;;12.77;2.78;;;;;;;;;;5033032;28;19909;-41
2021/12/25 11:17:35;;;;;;;8.80;2.80;;;;;;;;;;5027725;28;20049;-39
2021/12/25 11:20:02;;;;;;;8.13;3.40;;;;;;;;;;5033439;28;20018;-40
2021/12/25 11:22:45;;;;;;;8.95;2.25;;;;;;;;;;5035628;28;20032;-41
2021/12/25 11:25:11;;;;;;;8.02;1.90;;;;;;;;;;5030494;28;20104;-39
2021/12/25 11:27:37;;;;;;;4.43;2.22;;;;;;;;;;5037649;28;20025;-41
2021/12/25 11:30:04;;;;;;;8.20;2.00;;;;;;;;;;5034820;28;20025;-39
2021/12/25 11:32:31;;;;;;;4.80;1.90;;;;;;;;;;5030654;28;20053;-38
2021/12/25 11:35:00;;;;;;;8.35;1.50;;;;;;;;;;5036368;28;20086;-43
2021/12/25 11:37:27;;;;;;;1.90;1.33;;;;;;;;;;5031506;28;20021;-42
2021/12/25 11:39:54;;;;;;;6.13;1.65;;;;;;;;;;5031103;28;20032;-40
2021/12/25 11:42:21;;;;;;;4.32;1.58;;;;;;;;;;5028294;28;20241;-40
2021/12/25 11:44:52;;;;;;;4.80;1.63;;;;;;;;;;5029198;28;20020;-43
2021/12/25 11:47:37;;;;;;;5.80;2.70;;;;;;;;;;5030010;28;20447;-43
2021/12/25 11:50:08;;;;;;;7.15;1.77;;;;;;;;;;5030060;28;20034;-40
2021/12/25 11:52:41;;;;;;;2.92;1.52;;;;;;;;;;5032352;28;20025;-39
2021/12/25 11:55:34;;;;;;;11.55;3.83;;;;;;;;;;5032865;28;20108;-39
2021/12/25 12:00:34;;;;;;;11.82;2.03;;;;;;;;;;5029605;28;20069;-42
2021/12/25 12:03:00;;;;;;;7.57;2.55;;;;;;;;;;5032704;28;20124;-41
2021/12/25 12:05:28;;;;;;;9.27;1.83;;;;;;;;;;5034723;28;20033;-38
2021/12/25 12:08:11;;;;;;;5.60;1.42;;;;;;;;;;5025899;28;20048;-40
2021/12/25 12:10:43;;;;;;;2.78;1.45;;;;;;;;;;5030804;28;20029;-39
2021/12/25 12:13:18;;;;;;;9.63;1.55;;;;;;;;;;5029719;28;20484;-41
2021/12/25 12:15:44;;;;;;;;;;;;;;;;;;5031438;28;20589;-40
2021/12/25 12:18:33;;;;;;;4.68;1.58;;;;;;;;;;5029522;28;19964;-41
2021/12/25 12:21:07;;;;;;;5.38;1.50;;;;;;;;;;5029647;28;20741;-40
2021/12/25 12:23:50;;;;;;;10.25;1.85;;;;;;;;;;5031961;28;20041;-40
2021/12/25 12:26:36;;;;;;;5.80;1.52;;;;;;;;;;5032612;28;20036;-39
2021/12/25 12:29:02;;;;;;;6.30;1.60;;;;;;;;;;5032829;28;20025;-41
2021/12/25 12:31:43;;;;;;;13.75;2.10;;;;;;;;;;5033953;28;20025;-42
2021/12/25 12:34:28;;;;;;;12.75;1.90;;;;;;;;;;5032184;28;20040;-41
2021/12/25 12:37:14;;;;;;;5.95;1.40;;;;;;;;;;5033225;28;20086;-39
2021/12/25 12:39:43;;;;;;;2.25;1.20;;;;;;;;;;5025697;28;20112;-41
2021/12/25 12:42:13;;;;;;;11.25;1.85;;;;;;;;;;5033427;28;20064;-38
2021/12/25 12:44:39;;;;;;;5.70;1.73;;;;;;;;;;5031699;28;20026;-38
2021/12/25 12:47:07;;;;;;;4.05;1.58;;;;;;;;;;5044849;28;20055;-37
2021/12/25 12:49:35;;;;;;;5.90;1.73;;;;;;;;;;5039934;28;20029;-38
2021/12/25 12:52:12;;;;;;;3.45;1.00;;;;;;;;;;5031783;28;20479;-38
2021/12/25 12:54:41;;;;;;;5.22;2.45;;;;;;;;;;5034406;28;20701;-37
2021/12/25 12:57:08;;;;;;;11.18;3.70;;;;;;;;;;5037580;28;20038;-37
2021/12/25 13:02:14;;;;;;;6.60;2.58;;;;;;;;;;4989550;28;20045;-35
2021/12/25 13:04:44;;;;;;;6.18;2.60;;;;;;;;;;4992470;28;20026;-35
2021/12/25 13:07:11;;;;;;;5.88;2.50;;;;;;;;;;4992397;28;20061;-36
2021/12/25 13:09:42;;;;;;;3.47;2.08;;;;;;;;;;4992009;28;20069;-36
2021/12/25 13:12:19;;;;;;;4.55;1.50;;;;;;;;;;4973394;28;20090;-38
2021/12/25 13:14:46;;;;;;;3.60;1.70;;;;;;;;;;4973042;28;20106;-35
2021/12/25 13:17:14;;;;;;;6.50;1.98;;;;;;;;;;4972430;28;20023;-37
2021/12/25 13:19:49;;;;;;;5.28;1.95;;;;;;;;;;4973269;28;20018;-35
2021/12/25 13:22:15;;;;;;;8.02;1.50;;;;;;;;;;4973015;28;20043;-36
2021/12/25 13:24:41;;;;;;;3.80;1.30;;;;;;;;;;4967941;28;20066;-35
2021/12/25 13:27:07;;;;;;;11.20;2.17;;;;;;;;;;4972352;28;20054;-35
2021/12/25 13:29:33;;;;;;;8.40;2.00;;;;;;;;;;4971229;28;20537;-35
2021/12/25 13:32:00;;;;;;;8.27;1.95;;;;;;;;;;4972474;28;20506;-36
2021/12/25 13:34:28;;;;;;;9.05;2.15;;;;;;;;;;4970696;28;20015;-35
2021/12/25 13:36:58;;;;;;;4.05;2.00;;;;;;;;;;4972814;28;20110;-37
2021/12/25 13:39:27;;;;;;;7.13;1.58;;;;;;;;;;4971820;28;20051;-37
2021/12/25 13:41:55;;;;;;;4.60;1.67;;;;;;;;;;4971461;28;20058;-35
2021/12/25 13:44:24;;;;;;;5.57;2.38;;;;;;;;;;4972657;28;20027;-35
2021/12/25 13:46:58;;;;;;;5.00;1.50;;;;;;;;;;4972958;28;20383;-36
2021/12/25 13:49:35;;;;;;;8.10;2.15;;;;;;;;;;4972161;28;20041;-36
2021/12/25 13:52:04;;;;;;;5.95;1.77;;;;;;;;;;4972383;28;20030;-35
2021/12/25 13:54:31;;;;;;;2.78;1.30;;;;;;;;;;4971879;28;20041;-36
2021/12/25 13:56:57;;;;;;;6.43;1.98;;;;;;;;;;4972412;28;20026;-35
2021/12/25 13:59:24;;;;;;;6.65;2.47;;;;;;;;;;4969383;28;20406;-37
2021/12/25 14:02:01;;;;;;;7.05;1.70;;;;;;;;;;4970546;28;20504;-36
2021/12/25 14:04:27;;;;;;;5.60;1.75;;;;;;;;;;4971519;28;20385;-36
2021/12/25 14:06:53;;;;;;;6.95;2.38;;;;;;;;;;4976753;28;20077;-35
2021/12/25 14:09:19;;;;;;;12.27;2.30;;;;;;;;;;4973510;28;20042;-37
2021/12/25 14:11:56;;;;;;;4.82;2.05;;;;;;;;;;4969019;28;20276;-35
2021/12/25 14:14:23;;;;;;;5.32;2.20;;;;;;;;;;4970643;28;20065;-37
2021/12/25 14:16:50;;;;;;;5.25;1.70;;;;;;;;;;4969843;28;20022;-37
2021/12/25 14:19:16;;;;;;;5.28;1.63;;;;;;;;;;4969259;28;20106;-34
2021/12/25 14:21:53;;;;;;;5.63;1.90;;;;;;;;;;4970438;28;20113;-35
2021/12/25 14:24:19;;;;;;;2.72;1.23;;;;;;;;;;4970438;28;20062;-35
2021/12/25 14:26:45;;;;;;;8.63;1.90;;;;;;;;;;4970656;28;20034;-36
2021/12/25 14:29:20;;;;;;;6.78;1.33;;;;;;;;;;4969762;28;20062;-36
2021/12/25 14:31:46;;;;;;;10.23;2.60;;;;;;;;;;4969802;28;20427;-35
2021/12/25 14:34:12;;;;;;;2.75;1.48;;;;;;;;;;4971248;28;20379;-35
2021/12/25 14:36:40;;;;;;;11.73;2.13;;;;;;;;;;4970997;28;20035;-36
2021/12/25 14:39:07;;;;;;;13.13;2.90;;;;;;;;;;4970339;28;20666;-35
2021/12/25 14:41:37;;;;;;;3.95;1.95;;;;;;;;;;4973404;28;20463;-36
2021/12/25 14:44:15;;;;;;;11.70;2.17;;;;;;;;;;4970591;28;20117;-36
2021/12/25 14:46:42;;;;;;;5.03;1.70;;;;;;;;;;4969748;28;20031;-35
2021/12/25 14:49:08;;;;;;;6.28;2.20;;;;;;;;;;4971563;28;20023;-35
2021/12/25 14:51:38;;;;;;;5.70;2.75;;;;;;;;;;4972405;28;20396;-37
2021/12/25 14:54:05;;;;;;;15.80;3.88;;;;;;;;;;4972006;28;20027;-36
2021/12/25 14:56:33;;;;;;;7.40;3.97;;;;;;;;;;4967734;28;20045;-35
2021/12/25 14:59:08;;;;;;;13.45;3.53;;;;;;;;;;4969337;28;20025;-37
2021/12/25 15:01:38;;;;;;;11.25;3.05;;;;;;;;;;4981112;28;20113;-35
2021/12/25 15:04:06;;;;;;;8.40;3.92;;;;;;;;;;4980053;28;20027;-36
2021/12/25 15:06:33;;;;;;;7.43;2.97;;;;;;;;;;4971198;28;20110;-35
2021/12/25 15:09:00;;;;;;;14.00;5.10;;;;;;;;;;4970607;28;20031;-36
2021/12/25 15:11:31;;;;;;;13.43;4.63;;;;;;;;;;4970764;28;20062;-35
2021/12/25 15:14:02;;;;;;;10.95;5.32;;;;;;;;;;4970327;28;20014;-37
2021/12/25 15:16:41;;;;;;;11.63;4.43;;;;;;;;;;4968504;28;20065;-35
2021/12/25 15:19:08;;;;;;;11.82;4.47;;;;;;;;;;4961839;28;20023;-37
2021/12/25 15:21:45;;;;;;;11.63;4.20;;;;;;;;;;4968803;28;20125;-39
2021/12/25 15:24:13;;;;;;;16.52;6.95;;;;;;;;;;4970490;28;20026;-36
2021/12/25 15:26:40;;;;;;;16.17;5.45;;;;;;;;;;4970617;28;20481;-38
2021/12/25 15:29:06;;;;;;;11.82;4.72;;;;;;;;;;4970684;28;20109;-36
2021/12/25 15:31:33;;;;;;;13.05;5.55;;;;;;;;;;4969454;28;20122;-39
2021/12/25 15:34:01;;;;;;;20.23;6.60;;;;;;;;;;4969096;28;20035;-36
2021/12/25 15:36:27;;;;;;;18.95;6.65;;;;;;;;;;4969311;28;20098;-38
2021/12/25 15:38:54;;;;;;;16.38;7.45;;;;;;;;;;4968845;28;20062;-36
2021/12/25 15:41:21;;;;;;;40.65;12.73;;;;;;;;;;4967637;28;20026;-36
2021/12/25 15:43:47;;;;;;;15.65;7.43;;;;;;;;;;4971843;28;20062;-37
2021/12/25 15:46:14;;;;;;;13.25;6.00;;;;;;;;;;4972813;28;20089;-39
2021/12/25 15:48:40;;;;;;;13.77;7.20;;;;;;;;;;4973172;28;20298;-38
2021/12/25 15:51:07;;;;;;;26.50;10.07;;;;;;;;;;4968911;28;20030;-36
2021/12/25 15:53:33;;;;;;;26.00;10.52;;;;;;;;;;4968668;28;20072;-37
2021/12/25 15:56:00;;;;;;;32.83;12.30;;;;;;;;;;4969201;28;20015;-36
2021/12/25 15:58:26;;;;;;;37.72;13.23;;;;;;;;;;4972771;28;20078;-36
2021/12/25 16:00:53;;;;;;;28.98;13.70;;;;;;;;;;4972441;28;20105;-36
2021/12/25 16:03:19;;;;;;;35.50;14.25;;;;;;;;;;4973395;28;20026;-36
2021/12/25 16:05:46;;;;;;;30.08;11.95;;;;;;;;;;4973999;28;20085;-38